createdAt,value
2022-11-08T00:02:12.354Z,11.90
2022-11-08T00:04:39.017Z,11.90
2022-11-08T00:07:24.454Z,12.00
2022-11-08T00:10:09.621Z,12.00
2022-11-08T00:12:54.792Z,12.00
2022-11-08T00:15:21.245Z,12.10
2022-11-08T00:17:47.799Z,12.00
2022-11-08T00:20:14.348Z,12.00
2022-11-08T00:22:40.812Z,12.00
2022-11-08T00:25:07.806Z,11.90
2022-11-08T00:27:34.262Z,11.80
2022-11-08T00:30:00.913Z,11.90
2022-11-08T00:32:27.793Z,11.90
2022-11-08T00:34:54.263Z,11.80
2022-11-08T00:37:21.935Z,11.80
2022-11-08T00:39:48.809Z,11.70
2022-11-08T00:42:15.333Z,11.70
2022-11-08T00:44:41.765Z,11.60
2022-11-08T00:47:08.207Z,11.70
2022-11-08T00:49:34.954Z,11.70
2022-11-08T00:52:01.474Z,11.70
2022-11-08T00:54:27.970Z,11.70
2022-11-08T00:56:54.475Z,11.60
2022-11-08T00:59:20.926Z,11.60
2022-11-08T01:01:47.917Z,11.50
2022-11-08T01:04:16.616Z,11.40
2022-11-08T01:06:43.554Z,11.40
2022-11-08T01:09:10.229Z,11.50
2022-11-08T01:11:38.276Z,11.50
2022-11-08T01:14:04.926Z,11.40
2022-11-08T01:16:33.374Z,11.30
2022-11-08T01:19:00.239Z,11.20
2022-11-08T01:21:27.215Z,11.20
2022-11-08T01:23:57.113Z,11.10
2022-11-08T01:26:26.484Z,11.20
2022-11-08T01:28:54.033Z,11.20
2022-11-08T01:31:23.591Z,11.20
2022-11-08T01:33:51.726Z,11.20
2022-11-08T01:36:21.106Z,11.30
2022-11-08T01:38:47.861Z,11.30
2022-11-08T01:41:15.432Z,11.20
2022-11-08T01:43:46.857Z,11.20
2022-11-08T01:46:23.265Z,11.10
2022-11-08T01:48:56.032Z,11.00
2022-11-08T01:51:26.579Z,11.10
2022-11-08T01:53:53.451Z,11.10
2022-11-08T01:56:21.471Z,10.90
2022-11-08T01:58:50.749Z,11.00
2022-11-08T02:01:18.059Z,11.00
2022-11-08T02:03:44.803Z,10.90
2022-11-08T02:06:11.815Z,11.00
2022-11-08T02:08:43.065Z,11.00
2022-11-08T02:11:12.944Z,11.00
2022-11-08T02:13:40.477Z,11.00
2022-11-08T02:16:14.049Z,10.90
2022-11-08T02:18:42.120Z,11.00
2022-11-08T02:21:20.825Z,11.00
2022-11-08T02:23:52.114Z,11.00
2022-11-08T02:26:23.955Z,11.10
2022-11-08T02:28:50.626Z,11.00
2022-11-08T02:31:18.673Z,11.00
2022-11-08T02:33:45.838Z,11.00
2022-11-08T02:36:15.620Z,11.00
2022-11-08T02:38:47.050Z,10.90
2022-11-08T02:41:13.762Z,11.00
2022-11-08T02:43:40.286Z,10.90
2022-11-08T02:46:06.863Z,10.80
2022-11-08T02:48:33.394Z,10.80
2022-11-08T02:51:00.019Z,10.90
2022-11-08T02:53:26.720Z,10.90
2022-11-08T02:55:53.353Z,10.90
2022-11-08T02:58:20.256Z,10.90
2022-11-08T03:00:47.156Z,10.90
2022-11-08T03:03:13.926Z,10.90
2022-11-08T03:05:40.437Z,11.00
2022-11-08T03:08:06.989Z,10.90
2022-11-08T03:10:33.591Z,10.80
2022-11-08T03:13:03.397Z,10.80
2022-11-08T03:15:30.147Z,10.90
2022-11-08T03:17:57.430Z,11.00
2022-11-08T03:20:28.257Z,10.90
2022-11-08T03:23:03.995Z,10.90
2022-11-08T03:25:30.890Z,10.90
2022-11-08T03:28:02.633Z,10.70
2022-11-08T03:30:29.102Z,11.00
2022-11-08T03:32:55.591Z,11.10
2022-11-08T03:35:22.102Z,11.10
2022-11-08T03:37:56.931Z,10.90
2022-11-08T03:40:24.026Z,10.90
2022-11-08T03:42:50.615Z,11.10
2022-11-08T03:45:17.433Z,11.00
2022-11-08T03:47:46.614Z,10.90
2022-11-08T03:50:14.776Z,10.70
2022-11-08T03:52:49.106Z,10.70
2022-11-08T03:55:16.820Z,10.60
2022-11-08T03:57:44.683Z,10.60
2022-11-08T04:00:12.987Z,10.60
2022-11-08T04:02:43.109Z,10.60
2022-11-08T04:05:11.447Z,10.60
2022-11-08T04:07:38.266Z,10.70
2022-11-08T04:10:06.348Z,10.60
2022-11-08T04:12:51.450Z,11.00
2022-11-08T04:15:20.853Z,11.10
2022-11-08T04:18:07.968Z,10.90
2022-11-08T04:20:56.700Z,11.10
2022-11-08T04:23:23.169Z,11.20
2022-11-08T04:25:57.558Z,11.00
2022-11-08T04:28:28.996Z,11.00
2022-11-08T04:30:56.971Z,11.00
2022-11-08T04:33:24.177Z,11.00
2022-11-08T04:35:52.894Z,11.30
2022-11-08T04:38:20.359Z,11.20
2022-11-08T04:40:47.468Z,11.00
2022-11-08T04:43:14.056Z,10.80
2022-11-08T04:45:40.709Z,10.50
2022-11-08T04:48:07.724Z,10.60
2022-11-08T04:50:34.386Z,10.70
2022-11-08T04:53:01.306Z,10.50
2022-11-08T04:55:27.820Z,10.30
2022-11-08T04:57:58.000Z,10.50
2022-11-08T05:00:24.649Z,10.70
2022-11-08T05:02:51.211Z,11.20
2022-11-08T05:05:17.889Z,11.10
2022-11-08T05:07:44.460Z,11.10
2022-11-08T05:10:11.121Z,11.20
2022-11-08T05:12:37.663Z,11.30
2022-11-08T05:15:04.469Z,11.20
2022-11-08T05:17:30.992Z,10.90
2022-11-08T05:20:16.116Z,11.00
2022-11-08T05:23:01.001Z,10.80
2022-11-08T05:25:27.508Z,10.90
2022-11-08T05:27:53.973Z,11.00
2022-11-08T05:30:20.622Z,11.00
2022-11-08T05:32:50.775Z,11.00
2022-11-08T05:35:18.936Z,10.50
2022-11-08T05:37:45.513Z,10.40
2022-11-08T05:40:12.271Z,10.50
2022-11-08T05:42:38.737Z,10.60
2022-11-08T05:45:09.402Z,10.60
2022-11-08T05:47:36.712Z,10.40
2022-11-08T05:50:03.778Z,10.40
2022-11-08T05:52:30.838Z,10.00
2022-11-08T05:54:57.351Z,10.10
2022-11-08T05:57:23.893Z,10.10
2022-11-08T05:59:50.940Z,10.20
2022-11-08T06:02:18.570Z,10.20
2022-11-08T06:04:45.811Z,10.10
2022-11-08T06:07:16.023Z,10.10
2022-11-08T06:09:42.589Z,10.20
2022-11-08T06:12:09.564Z,10.20
2022-11-08T06:14:36.222Z,10.10
2022-11-08T06:17:02.818Z,10.30
2022-11-08T06:19:29.340Z,10.60
2022-11-08T06:21:56.304Z,10.30
2022-11-08T06:24:23.433Z,10.30
2022-11-08T06:26:50.457Z,10.30
2022-11-08T06:29:17.161Z,10.10
2022-11-08T06:31:44.066Z,10.10
2022-11-08T06:34:11.112Z,10.20
2022-11-08T06:36:37.891Z,10.50
2022-11-08T06:39:04.637Z,10.50
2022-11-08T06:41:32.214Z,10.60
2022-11-08T06:43:59.029Z,10.90
2022-11-08T06:46:25.962Z,10.90
2022-11-08T06:48:52.668Z,10.60
2022-11-08T06:51:19.255Z,10.80
2022-11-08T06:53:46.214Z,10.60
2022-11-08T06:56:14.464Z,11.00
2022-11-08T06:58:41.244Z,11.20
2022-11-08T07:01:11.044Z,11.10
2022-11-08T07:03:38.161Z,10.90
2022-11-08T07:06:05.745Z,11.10
2022-11-08T07:08:34.987Z,11.20
2022-11-08T07:11:03.331Z,11.10
2022-11-08T07:13:30.233Z,11.00
2022-11-08T07:15:57.891Z,10.90
2022-11-08T07:18:24.788Z,10.70
2022-11-08T07:20:52.483Z,11.10
2022-11-08T07:23:19.687Z,11.10
2022-11-08T07:25:46.436Z,10.80
2022-11-08T07:28:16.616Z,10.90
2022-11-08T07:30:43.379Z,10.80
2022-11-08T07:33:09.978Z,10.70
2022-11-08T07:35:36.521Z,10.80
2022-11-08T07:38:03.146Z,11.00
2022-11-08T07:40:29.676Z,11.00
2022-11-08T07:43:12.144Z,10.80
2022-11-08T07:45:39.863Z,10.80
2022-11-08T07:48:12.089Z,10.90
2022-11-08T07:50:40.725Z,10.90
2022-11-08T07:53:07.241Z,11.00
2022-11-08T07:55:36.964Z,11.00
2022-11-08T07:58:03.964Z,11.10
2022-11-08T08:00:31.891Z,11.40
2022-11-08T08:02:59.644Z,11.40
2022-11-08T08:05:27.789Z,11.60
2022-11-08T08:07:58.692Z,11.70
2022-11-08T08:10:26.066Z,11.60
2022-11-08T08:12:52.598Z,11.60
2022-11-08T08:15:19.139Z,11.80
2022-11-08T08:17:45.638Z,11.80
2022-11-08T08:20:12.414Z,12.00
2022-11-08T08:22:49.561Z,12.00
2022-11-08T08:25:16.826Z,12.00
2022-11-08T08:27:51.201Z,12.20
2022-11-08T08:30:18.170Z,12.30
2022-11-08T08:32:48.017Z,12.40
2022-11-08T08:35:19.935Z,12.30
2022-11-08T08:37:46.600Z,12.70
2022-11-08T08:40:13.128Z,13.30
2022-11-08T08:42:39.614Z,13.40
2022-11-08T08:45:10.668Z,13.40
2022-11-08T08:47:40.112Z,13.40
2022-11-08T08:50:06.965Z,13.50
2022-11-08T08:52:33.724Z,13.30
2022-11-08T08:55:00.149Z,13.20
2022-11-08T08:57:26.632Z,13.60
2022-11-08T09:02:41.476Z,13.40
2022-11-08T09:05:10.268Z,13.20
2022-11-08T09:07:37.129Z,13.50
2022-11-08T09:10:05.061Z,13.40
2022-11-08T09:12:31.749Z,13.40
2022-11-08T09:14:58.235Z,13.70
2022-11-08T09:17:24.786Z,13.50
2022-11-08T09:19:56.841Z,13.60
2022-11-08T09:22:23.954Z,13.40
2022-11-08T09:24:50.502Z,13.50
2022-11-08T09:27:17.063Z,13.80
2022-11-08T09:29:43.528Z,14.00
2022-11-08T09:32:09.978Z,14.20
2022-11-08T09:34:36.546Z,14.50
2022-11-08T09:37:02.998Z,15.00
2022-11-08T09:39:29.461Z,15.30
2022-11-08T09:42:20.258Z,15.00
2022-11-08T09:45:05.118Z,15.00
2022-11-08T09:47:33.731Z,14.80
2022-11-08T09:50:11.569Z,14.50
2022-11-08T09:52:40.443Z,14.70
2022-11-08T09:55:31.030Z,15.00
2022-11-08T09:58:16.036Z,15.20
2022-11-08T10:00:42.504Z,15.50
2022-11-08T10:03:14.265Z,15.60
2022-11-08T10:05:45.053Z,15.50
2022-11-08T10:08:52.471Z,15.30
2022-11-08T10:11:46.209Z,15.40
2022-11-08T10:14:27.897Z,15.30
2022-11-08T10:17:29.266Z,15.50
2022-11-08T10:20:18.957Z,15.90
2022-11-08T10:23:08.793Z,15.80
2022-11-08T10:25:44.912Z,15.80
2022-11-08T10:28:15.782Z,15.80
2022-11-08T10:30:44.624Z,15.60
2022-11-08T10:33:19.077Z,15.60
2022-11-08T10:35:49.804Z,15.50
2022-11-08T10:38:24.647Z,15.30
2022-11-08T10:40:57.320Z,15.50
2022-11-08T10:43:31.736Z,15.70
2022-11-08T10:45:58.246Z,15.90
2022-11-08T10:48:24.673Z,15.90
2022-11-08T10:50:52.599Z,15.90
2022-11-08T10:53:31.513Z,15.70
2022-11-08T10:56:06.565Z,15.80
2022-11-08T10:58:39.149Z,16.10
2022-11-08T11:01:26.283Z,16.20
2022-11-08T11:03:53.394Z,16.40
2022-11-08T11:06:32.433Z,16.50
2022-11-08T11:09:01.949Z,16.50
2022-11-08T11:11:31.452Z,16.50
2022-11-08T11:14:22.029Z,16.40
2022-11-08T11:16:58.485Z,16.90
2022-11-08T11:19:26.031Z,16.60
2022-11-08T11:21:58.189Z,17.00
2022-11-08T11:24:25.451Z,17.00
2022-11-08T11:26:57.934Z,16.90
2022-11-08T11:29:27.493Z,16.80
2022-11-08T11:31:54.589Z,16.90
2022-11-08T11:34:44.131Z,16.80
2022-11-08T11:37:13.890Z,16.70
2022-11-08T11:40:12.925Z,16.90
2022-11-08T11:42:54.512Z,17.00
2022-11-08T11:45:25.833Z,17.30
2022-11-08T11:47:55.263Z,17.20
2022-11-08T11:50:38.356Z,17.40
2022-11-08T11:53:26.015Z,17.40
2022-11-08T11:56:30.385Z,17.60
2022-11-08T11:59:03.014Z,17.40
2022-11-08T12:01:47.961Z,17.40
2022-11-08T12:04:43.782Z,17.40
2022-11-08T12:07:35.672Z,17.30
2022-11-08T12:10:15.711Z,17.20
2022-11-08T12:13:02.973Z,17.30
2022-11-08T12:15:52.616Z,17.70
2022-11-08T12:18:41.553Z,17.40
2022-11-08T12:21:22.839Z,17.40
2022-11-08T12:24:14.238Z,17.40
2022-11-08T12:27:00.350Z,17.30
2022-11-08T12:29:46.364Z,17.30
2022-11-08T12:32:22.860Z,17.10
2022-11-08T12:35:17.497Z,17.10
2022-11-08T12:37:43.914Z,17.30
2022-11-08T12:40:29.372Z,17.70
2022-11-08T12:43:01.810Z,17.80
2022-11-08T12:45:31.099Z,18.10
2022-11-08T12:48:45.967Z,18.40
2022-11-08T12:51:49.239Z,18.00
2022-11-08T12:54:32.771Z,18.40
2022-11-08T12:57:28.020Z,19.10
2022-11-08T13:00:13.169Z,18.80
2022-11-08T13:02:40.804Z,18.80
2022-11-08T13:05:24.813Z,18.70
2022-11-08T13:08:15.637Z,19.10
2022-11-08T13:10:51.319Z,19.00
2022-11-08T13:13:17.661Z,19.00
2022-11-08T13:16:14.464Z,18.30
2022-11-08T13:18:49.356Z,18.40
2022-11-08T13:21:28.177Z,18.10
2022-11-08T13:24:42.696Z,18.00
2022-11-08T13:27:23.035Z,18.00
2022-11-08T13:29:53.188Z,17.70
2022-11-08T13:32:54.080Z,17.70
2022-11-08T13:35:35.097Z,17.50
2022-11-08T13:38:19.681Z,17.40
2022-11-08T13:40:53.385Z,17.40
2022-11-08T13:43:33.201Z,17.20
2022-11-08T13:46:27.950Z,17.00
2022-11-08T13:48:57.453Z,16.90
2022-11-08T13:51:27.865Z,16.80
2022-11-08T13:53:57.713Z,16.80
2022-11-08T13:56:40.373Z,16.80
2022-11-08T13:59:32.096Z,16.70
2022-11-08T14:01:59.496Z,16.70
2022-11-08T14:04:29.251Z,16.70
2022-11-08T14:07:11.548Z,17.00
2022-11-08T14:09:42.355Z,17.00
2022-11-08T14:12:12.016Z,16.80
2022-11-08T14:14:43.343Z,16.70
2022-11-08T14:17:16.412Z,16.70
2022-11-08T14:19:45.080Z,16.50
2022-11-08T14:22:15.862Z,16.60
2022-11-08T14:24:42.797Z,16.70
2022-11-08T14:27:12.839Z,16.50
2022-11-08T14:29:39.653Z,16.60
2022-11-08T14:32:16.562Z,16.90
2022-11-08T14:34:43.505Z,16.60
2022-11-08T14:37:23.683Z,16.50
2022-11-08T14:39:53.325Z,16.50
2022-11-08T14:42:25.227Z,16.60
2022-11-08T14:44:53.680Z,16.60
2022-11-08T14:47:26.208Z,16.30
2022-11-08T14:49:52.887Z,16.50
2022-11-08T14:52:25.884Z,16.30
2022-11-08T14:55:02.041Z,16.10
2022-11-08T14:57:39.846Z,16.10
2022-11-08T15:00:17.250Z,16.10
2022-11-08T15:02:47.069Z,16.10
2022-11-08T15:05:32.491Z,16.10
2022-11-08T15:07:59.761Z,16.00
2022-11-08T15:10:26.700Z,15.90
2022-11-08T15:12:53.588Z,16.00
2022-11-08T15:15:21.366Z,16.10
2022-11-08T15:18:05.360Z,16.00
2022-11-08T15:20:32.054Z,16.10
2022-11-08T15:22:58.569Z,15.80
2022-11-08T15:25:29.162Z,15.90
2022-11-08T15:27:57.485Z,15.80
2022-11-08T15:30:29.668Z,15.90
2022-11-08T15:32:56.513Z,15.70
2022-11-08T15:35:32.525Z,15.60
2022-11-08T15:38:20.980Z,15.50
2022-11-08T15:40:52.416Z,15.30
2022-11-08T15:43:31.176Z,15.20
2022-11-08T15:45:59.420Z,15.30
2022-11-08T15:48:28.721Z,15.30
2022-11-08T15:50:56.789Z,15.30
2022-11-08T15:53:24.674Z,15.30
2022-11-08T15:55:52.346Z,15.50
2022-11-08T15:58:36.211Z,15.30
2022-11-08T16:01:04.281Z,15.30
2022-11-08T16:03:31.422Z,15.20
2022-11-08T16:05:57.899Z,15.20
2022-11-08T16:08:24.779Z,15.30
2022-11-08T16:10:53.217Z,15.20
2022-11-08T16:13:24.108Z,15.20
2022-11-08T16:15:50.574Z,15.20
2022-11-08T16:18:19.035Z,15.40
2022-11-08T16:20:45.908Z,15.30
2022-11-08T16:23:13.417Z,15.10
2022-11-08T16:25:44.851Z,15.20
2022-11-08T16:28:22.425Z,15.10
2022-11-08T16:30:49.149Z,15.00
2022-11-08T16:33:19.721Z,14.80
2022-11-08T16:35:46.201Z,14.90
2022-11-08T16:38:12.689Z,14.70
2022-11-08T16:40:41.263Z,14.80
2022-11-08T16:43:11.722Z,14.80
2022-11-08T16:46:03.874Z,14.90
2022-11-08T16:48:26.858Z,14.90
2022-11-08T16:51:00.565Z,14.80
2022-11-08T16:53:27.264Z,14.70
2022-11-08T16:55:53.907Z,14.70
2022-11-08T16:58:20.693Z,14.60
2022-11-08T17:00:48.791Z,14.70
2022-11-08T17:03:21.689Z,14.70
2022-11-08T17:05:48.385Z,14.80
2022-11-08T17:08:14.999Z,14.60
2022-11-08T17:10:41.585Z,14.90
2022-11-08T17:13:12.502Z,14.60
2022-11-08T17:15:38.987Z,14.70
2022-11-08T17:18:05.553Z,14.70
2022-11-08T17:20:32.031Z,14.70
2022-11-08T17:22:58.528Z,14.50
2022-11-08T17:25:25.030Z,14.40
2022-11-08T17:27:52.113Z,14.70
2022-11-08T17:30:23.824Z,14.50
2022-11-08T17:32:52.896Z,14.50
2022-11-08T17:35:19.412Z,14.40
2022-11-08T17:37:45.859Z,14.50
2022-11-08T17:40:12.602Z,14.80
2022-11-08T17:42:39.173Z,14.50
2022-11-08T17:45:10.094Z,14.50
2022-11-08T17:47:37.113Z,14.40
2022-11-08T17:50:04.716Z,14.40
2022-11-08T17:52:31.325Z,14.30
2022-11-08T17:54:57.864Z,14.20
2022-11-08T17:57:24.429Z,14.40
2022-11-08T17:59:50.901Z,14.30
2022-11-08T18:02:17.522Z,14.20
2022-11-08T18:04:44.157Z,14.30
2022-11-08T18:07:10.772Z,14.10
2022-11-08T18:09:37.555Z,14.30
2022-11-08T18:12:04.131Z,14.20
2022-11-08T18:14:30.603Z,14.30
2022-11-08T18:16:57.169Z,14.30
2022-11-08T18:19:23.711Z,14.10
2022-11-08T18:21:50.195Z,14.20
2022-11-08T18:24:16.978Z,14.10
2022-11-08T18:26:43.859Z,14.00
2022-11-08T18:29:10.351Z,14.00
2022-11-08T18:31:37.516Z,14.20
2022-11-08T18:34:04.401Z,14.00
2022-11-08T18:36:31.295Z,13.90
2022-11-08T18:39:01.658Z,14.10
2022-11-08T18:41:30.583Z,14.10
2022-11-08T18:43:58.667Z,13.90
2022-11-08T18:46:26.774Z,14.00
2022-11-08T18:48:54.260Z,13.70
2022-11-08T18:51:22.267Z,13.80
2022-11-08T18:53:49.026Z,13.80
2022-11-08T18:56:18.750Z,14.00
2022-11-08T18:58:45.512Z,14.00
2022-11-08T19:01:12.084Z,13.80
2022-11-08T19:03:38.750Z,13.70
2022-11-08T19:06:05.484Z,13.80
2022-11-08T19:08:32.699Z,13.60
2022-11-08T19:11:02.977Z,13.70
2022-11-08T19:13:31.321Z,13.70
2022-11-08T19:16:15.859Z,13.90
2022-11-08T19:18:43.473Z,13.90
2022-11-08T19:21:12.329Z,13.70
2022-11-08T19:23:39.267Z,13.70
2022-11-08T19:26:07.869Z,13.70
2022-11-08T19:28:40.073Z,13.70
2022-11-08T19:31:06.982Z,13.90
2022-11-08T19:33:33.745Z,13.80
2022-11-08T19:36:06.133Z,13.70
2022-11-08T19:38:33.820Z,13.70
2022-11-08T19:41:04.432Z,13.90
2022-11-08T19:43:33.150Z,13.70
2022-11-08T19:46:04.365Z,13.60
2022-11-08T19:48:36.346Z,13.70
2022-11-08T19:51:07.253Z,13.70
2022-11-08T19:53:34.110Z,13.80
2022-11-08T19:56:06.271Z,13.70
2022-11-08T19:58:33.969Z,13.90
2022-11-08T20:01:22.746Z,14.00
2022-11-08T20:03:49.772Z,13.90
2022-11-08T20:06:20.625Z,14.00
2022-11-08T20:08:48.562Z,14.10
2022-11-08T20:11:20.821Z,13.80
2022-11-08T20:13:47.475Z,13.60
2022-11-08T20:16:19.819Z,13.60
2022-11-08T20:18:46.533Z,13.80
2022-11-08T20:21:14.505Z,13.80
2022-11-08T20:23:42.623Z,13.90
2022-11-08T20:26:13.330Z,13.80
2022-11-08T20:28:41.928Z,13.70
2022-11-08T20:31:11.057Z,13.60
2022-11-08T20:33:38.395Z,13.70
2022-11-08T20:36:09.875Z,13.70
2022-11-08T20:38:36.925Z,13.40
2022-11-08T20:41:05.021Z,13.50
2022-11-08T20:43:31.610Z,13.50
2022-11-08T20:46:02.983Z,13.50
2022-11-08T20:48:29.714Z,13.60
2022-11-08T20:51:00.374Z,13.60
2022-11-08T20:53:28.200Z,13.70
2022-11-08T20:55:58.997Z,13.50
2022-11-08T20:58:29.984Z,13.30
2022-11-08T21:00:58.805Z,13.30
2022-11-08T21:03:26.370Z,13.00
2022-11-08T21:05:54.517Z,13.40
2022-11-08T21:11:09.775Z,13.30
2022-11-08T21:13:38.221Z,13.40
2022-11-08T21:16:28.050Z,13.30
2022-11-08T21:18:51.897Z,13.30
2022-11-08T21:21:19.656Z,13.30
2022-11-08T21:23:47.192Z,13.40
2022-11-08T21:26:15.288Z,13.50
2022-11-08T21:28:41.827Z,13.30
2022-11-08T21:31:11.770Z,13.30
2022-11-08T21:33:38.320Z,13.10
2022-11-08T21:36:05.582Z,13.20
2022-11-08T21:38:32.071Z,13.10
2022-11-08T21:41:05.349Z,13.00
2022-11-08T21:43:35.476Z,13.20
2022-11-08T21:46:12.330Z,13.20
2022-11-08T21:48:38.766Z,13.20
2022-11-08T21:51:05.365Z,13.40
2022-11-08T21:53:31.882Z,13.30
2022-11-08T21:55:58.659Z,13.70
2022-11-08T21:58:25.263Z,13.90
2022-11-08T22:00:52.395Z,13.30
2022-11-08T22:03:19.493Z,13.40
2022-11-08T22:05:46.275Z,13.50
2022-11-08T22:08:12.805Z,13.40
2022-11-08T22:10:39.286Z,13.30
2022-11-08T22:13:05.835Z,13.60
2022-11-08T22:15:32.283Z,13.40
2022-11-08T22:18:15.691Z,13.30
2022-11-08T22:21:07.189Z,13.40
2022-11-08T22:23:37.139Z,13.60
2022-11-08T22:26:03.815Z,13.40
2022-11-08T22:28:30.548Z,13.40
2022-11-08T22:30:57.012Z,13.20
2022-11-08T22:33:23.539Z,13.10
2022-11-08T22:35:50.003Z,13.20
2022-11-08T22:38:17.249Z,13.10
2022-11-08T22:40:45.306Z,13.00
2022-11-08T22:43:12.267Z,13.10
2022-11-08T22:45:40.182Z,13.10
2022-11-08T22:48:07.358Z,13.20
2022-11-08T22:50:33.835Z,13.30
2022-11-08T22:53:00.703Z,13.20
2022-11-08T22:55:27.343Z,13.30
2022-11-08T22:57:54.014Z,13.10
2022-11-08T23:00:21.354Z,13.00
2022-11-08T23:02:48.066Z,13.00
2022-11-08T23:05:14.586Z,13.00
2022-11-08T23:07:41.042Z,13.10
2022-11-08T23:10:07.731Z,13.10
2022-11-08T23:12:52.751Z,12.90
2022-11-08T23:15:37.633Z,13.30
2022-11-08T23:18:04.116Z,13.30
2022-11-08T23:20:50.886Z,13.00
2022-11-08T23:23:35.675Z,13.10
2022-11-08T23:26:02.191Z,13.50
2022-11-08T23:28:47.302Z,13.20
2022-11-08T23:31:32.181Z,13.00
2022-11-08T23:33:59.030Z,12.90
2022-11-08T23:36:28.323Z,12.90
2022-11-08T23:38:55.632Z,12.80
2022-11-08T23:41:41.485Z,12.90
2022-11-08T23:44:23.877Z,12.90
2022-11-08T23:46:57.759Z,12.90
2022-11-08T23:49:24.587Z,12.80
2022-11-08T23:51:51.450Z,12.80
2022-11-08T23:54:18.467Z,12.80
2022-11-08T23:56:45.202Z,13.00
2022-11-08T23:59:12.633Z,13.00
